Alta, California
Current Conditions -  °F | °C
As of 1:52 AM on Thursday 23 Oct 2014 (Local Time) from KBLU Reporting Station
Clear Clear  
Wind Chill: 52°   Ceiling: Unl
Heat Index: 52°   Visibility: 10mi
Dew Point: 28°   Wind: 7mph
Humidity: 40%   Direction: 150°SSE
Pressure: 30.16"   Gusts: NA
Location:  39.21°N, 120.81°W
Report Text: KBLU 230852Z AUTO 15006KT 10SM CLR 11/M02 A3016 RMK AO2 SLP161 T01111022 58006 $
Loading
Personal Weather Stations






























Interactive Weather Map
Tropical Storm Tracking
New forecast layout! Learn more

10-Day Weather Forecast

Advertisements
Track Severe Weather on mobile